Salvador de Bahía, Brasil

6:47 AM BRT en Septiembre 19, 2014 (GMT -0300)
DEP. L. E. Magalhaes International | Change Station
CLOSE
Current Station
Aeropuerto
Location: Salvador Airport,
Altura: 20 ft
Estaciones meteorológicas cercanas

Alt 20 ft 12.91 °S, 38.33 °W | Updated 47 minutes ago

Partly Cloudy
Parcialmente nublado
75 ° F
Sensación térmica 75 ° F
N
9
Viento Variable Viento desde Este

Hoy
Alta -- | Baja -- ° F
--% Posibilidad de precipitaciones
Ayer
Alta -- | Baja -- ° F
Precip. -- pul
5:25 AM 5:30 PM
Creciente menguante, 20% visible
Presión 30.01 pul
Visibilidad 6.2 Millas
Nubes Baja 1700 ft
Punto de rocío 66 ° F
Humedad 73%
Precipitaciones 0.00 pul
Espesor de la nieve No disponible.
UV 0 de una escala de 12
Polen No disponible.
Calidad del aire No disponible.
Flu Activity No disponible.
METAR SBSV 190900Z 10008KT 9999 FEW017 24/19 Q1016

More Conditions Fewer Conditions

Presión 30.01 pul
Visibilidad 6.2 Millas
Nubes Baja 1700 ft
Punto de rocío 66 ° F
Humedad 73%
Precipitaciones 0.00 pul
Espesor de la nieve No disponible.
UV 0 de una escala de 12
Polen No disponible.
Calidad del aire No disponible.
Flu Activity No disponible.
METAR SBSV 190900Z 10008KT 9999 FEW017 24/19 Q1016

More Conditions Fewer Conditions

10-Day Weather Forecast

Almanac

Astronomía

Sep. 19, 2014 Salida Puesta
Hora real 5:25 AM BRT 5:30 PM BRT
Crepúsculo civil 5:04 AM BRT 5:51 PM BRT
Crepúsculo náutico 4:40 AM BRT 6:15 PM BRT
Crepúsculo astronómico 4:15 AM BRT 6:40 PM BRT
Luna 2:04 AM BRT 1:58 PM BRT
Horas de luz 12h 46m
Horas de luz
12h 04m
Tomorrow will be 0m 43s longer.
Creciente menguante, 20% of the Moon is Illuminated
Hoy
Creciente menguante
Sep 24
Nueva
Oct 1
Cuarto creciente
Oct 8
Luna llena
Oct 15
Cuarto menguante

Extremos de ayer

Máximos del país Bajas del país

Community

WunderPhotos

Upload Photos

1,754,583 ¡fotos cargadas!

Nearby

Calidad del aire

Not available.

Grosos de nieve

Not available.

Actividad de terremotos

Ciudad Distance Mag. Tiempo y dato
No hay informes recientes de la actividad sísmica.
Magnitud mínima muestra es 2,5.

Temperaturas de aguas costeras

Lugar Temperatura
Sin partes meteorológicos de las estaciones

Estaciones meteorológicas cercanas